createdAt,value
2019-04-29T00:00:57.777Z,100695.39
2019-04-29T00:02:36.703Z,100692.47
2019-04-29T00:04:11.256Z,100696.04
2019-04-29T00:05:45.823Z,100692.19
2019-04-29T00:07:20.182Z,100692.65
2019-04-29T00:08:54.783Z,100690.41
2019-04-29T00:10:29.333Z,100690.94
2019-04-29T00:12:03.906Z,100694.16
2019-04-29T00:13:39.240Z,100692.97
2019-04-29T00:15:27.377Z,100686.98
2019-04-29T00:17:08.853Z,100685.79
2019-04-29T00:19:01.217Z,100680.89
2019-04-29T00:20:43.224Z,100683.58
2019-04-29T00:22:17.999Z,100678.21
2019-04-29T00:24:03.327Z,100685.50
2019-04-29T00:25:28.784Z,100687.27
2019-04-29T00:27:03.423Z,100689.89
2019-04-29T00:28:38.101Z,100693.47
2019-04-29T00:30:16.417Z,100695.66
2019-04-29T00:31:51.225Z,100691.44
2019-04-29T00:33:25.725Z,100690.33
2019-04-29T00:35:00.105Z,100688.34
2019-04-29T00:36:40.987Z,100684.28
2019-04-29T00:38:35.357Z,100678.05
2019-04-29T00:40:28.970Z,100679.06
2019-04-29T00:42:28.285Z,100682.39
2019-04-29T00:44:13.971Z,100680.06
2019-04-29T00:45:48.508Z,100681.21
2019-04-29T00:47:22.885Z,100678.63
2019-04-29T00:48:57.253Z,100676.63
2019-04-29T00:50:32.015Z,100676.70
2019-04-29T00:52:06.521Z,100680.48
2019-04-29T00:53:41.166Z,100672.36
2019-04-29T00:55:18.322Z,100673.67
2019-04-29T00:56:53.151Z,100666.16
2019-04-29T00:58:27.566Z,100667.75
2019-04-29T01:00:01.964Z,100675.11
2019-04-29T01:01:36.453Z,100668.75
2019-04-29T01:03:10.950Z,100671.62
2019-04-29T01:04:45.341Z,100675.14
2019-04-29T01:06:19.819Z,100675.38
2019-04-29T01:07:54.258Z,100675.57
2019-04-29T01:09:28.727Z,100674.22
2019-04-29T01:11:03.530Z,100677.41
2019-04-29T01:12:37.982Z,100674.91
2019-04-29T01:14:12.718Z,100676.63
2019-04-29T01:15:47.130Z,100673.30
2019-04-29T01:17:21.601Z,100676.92
2019-04-29T01:18:56.017Z,100672.92
2019-04-29T01:20:30.402Z,100674.00
2019-04-29T01:22:05.312Z,100674.55
2019-04-29T01:23:40.104Z,100676.20
2019-04-29T01:25:14.660Z,100673.00
2019-04-29T01:27:07.162Z,100677.42
2019-04-29T01:28:49.443Z,100674.52
2019-04-29T01:31:01.869Z,100670.77
2019-04-29T01:32:36.330Z,100673.50
2019-04-29T01:34:17.268Z,100674.89
2019-04-29T01:35:55.049Z,100666.05
2019-04-29T01:37:37.153Z,100665.17
2019-04-29T01:39:13.425Z,100665.36
2019-04-29T01:41:06.901Z,100663.48
2019-04-29T01:42:42.082Z,100665.82
2019-04-29T01:44:17.221Z,100659.45
2019-04-29T01:45:51.612Z,100656.27
2019-04-29T01:47:25.969Z,100655.76
2019-04-29T01:49:00.362Z,100660.88
2019-04-29T01:50:34.730Z,100651.41
2019-04-29T01:52:09.163Z,100651.52
2019-04-29T01:53:43.525Z,100653.67
2019-04-29T01:55:18.226Z,100653.91
2019-04-29T01:56:52.965Z,100654.32
2019-04-29T01:58:27.582Z,100649.01
2019-04-29T02:00:02.335Z,100647.33
2019-04-29T02:01:37.216Z,100641.66
2019-04-29T02:03:11.718Z,100643.08
2019-04-29T02:04:46.120Z,100645.91
2019-04-29T02:06:20.562Z,100648.86
2019-04-29T02:07:55.269Z,100640.55
2019-04-29T02:09:48.444Z,100648.66
2019-04-29T02:11:22.909Z,100635.38
2019-04-29T02:12:57.562Z,100640.01
2019-04-29T02:14:32.291Z,100639.59
2019-04-29T02:16:06.710Z,100642.45
2019-04-29T02:17:41.409Z,100638.41
2019-04-29T02:19:15.774Z,100637.13
2019-04-29T02:20:50.129Z,100637.69
2019-04-29T02:22:43.634Z,100636.31
2019-04-29T02:24:18.994Z,100636.52
2019-04-29T02:25:53.368Z,100639.41
2019-04-29T02:27:27.729Z,100632.33
2019-04-29T02:29:02.124Z,100635.01
2019-04-29T02:30:45.274Z,100625.90
2019-04-29T02:32:19.721Z,100631.02
2019-04-29T02:33:54.105Z,100631.41
2019-04-29T02:35:28.574Z,100635.78
2019-04-29T02:37:04.581Z,100631.83
2019-04-29T02:38:45.173Z,100637.61
2019-04-29T02:40:27.447Z,100635.51
2019-04-29T02:42:27.341Z,100633.44
2019-04-29T02:44:04.124Z,100630.98
2019-04-29T02:45:38.504Z,100622.75
2019-04-29T02:47:13.070Z,100622.77
2019-04-29T02:48:47.498Z,100615.00
2019-04-29T02:50:21.926Z,100613.03
2019-04-29T02:51:56.704Z,100621.14
2019-04-29T02:53:31.189Z,100615.21
2019-04-29T02:55:07.657Z,100615.39
2019-04-29T02:56:43.699Z,100608.17
2019-04-29T02:58:34.322Z,100603.34
2019-04-29T03:00:27.402Z,100610.45
2019-04-29T03:02:30.156Z,100612.20
2019-04-29T03:04:15.173Z,100604.47
2019-04-29T03:05:53.649Z,100606.34
2019-04-29T03:07:28.358Z,100602.70
2019-04-29T03:09:02.837Z,100600.27
2019-04-29T03:10:37.283Z,100600.23
2019-04-29T03:12:12.610Z,100603.83
2019-04-29T03:13:47.469Z,100603.14
2019-04-29T03:15:30.205Z,100597.33
2019-04-29T03:17:04.737Z,100601.88
2019-04-29T03:18:44.186Z,100597.53
2019-04-29T03:20:27.006Z,100591.77
2019-04-29T03:22:03.686Z,100593.28
2019-04-29T03:23:38.599Z,100594.16
2019-04-29T03:25:13.214Z,100596.82
2019-04-29T03:26:47.591Z,100593.47
2019-04-29T03:28:22.012Z,100589.08
2019-04-29T03:29:56.411Z,100588.23
2019-04-29T03:31:30.776Z,100586.30
2019-04-29T03:33:05.490Z,100582.36
2019-04-29T03:34:40.061Z,100586.14
2019-04-29T03:36:14.583Z,100578.45
2019-04-29T03:37:49.347Z,100579.91
2019-04-29T03:39:23.779Z,100578.39
2019-04-29T03:40:58.228Z,100577.81
2019-04-29T03:42:32.991Z,100575.94
2019-04-29T03:44:07.343Z,100581.46
2019-04-29T03:45:41.729Z,100584.14
2019-04-29T03:47:18.655Z,100585.34
2019-04-29T03:48:52.282Z,100585.94
2019-04-29T03:50:26.636Z,100587.15
2019-04-29T03:52:01.010Z,100584.27
2019-04-29T03:53:35.401Z,100582.49
2019-04-29T03:55:09.936Z,100585.27
2019-04-29T03:56:44.914Z,100577.15
2019-04-29T03:58:19.378Z,100580.19
2019-04-29T03:59:56.954Z,100582.22
2019-04-29T04:01:38.432Z,100565.65
2019-04-29T04:03:26.644Z,100577.77
2019-04-29T04:05:09.324Z,100574.89
2019-04-29T04:06:52.533Z,100570.55
2019-04-29T04:08:32.915Z,100574.05
2019-04-29T04:10:08.459Z,100583.45
2019-04-29T04:11:43.266Z,100578.02
2019-04-29T04:13:18.123Z,100575.17
2019-04-29T04:14:52.910Z,100572.79
2019-04-29T04:16:45.816Z,100568.63
2019-04-29T04:18:28.643Z,100566.91
2019-04-29T04:20:03.462Z,100568.82
2019-04-29T04:21:38.735Z,100564.08
2019-04-29T04:23:13.613Z,100568.11
2019-04-29T04:24:48.618Z,100552.89
2019-04-29T04:26:23.398Z,100558.22
2019-04-29T04:27:58.196Z,100563.74
2019-04-29T04:29:33.101Z,100555.61
2019-04-29T04:31:08.194Z,100557.39
2019-04-29T04:32:43.043Z,100557.58
2019-04-29T04:34:17.944Z,100557.25
2019-04-29T04:35:52.809Z,100555.16
2019-04-29T04:37:27.688Z,100549.76
2019-04-29T04:39:02.483Z,100545.92
2019-04-29T04:40:44.350Z,100541.78
2019-04-29T04:42:19.429Z,100536.72
2019-04-29T04:43:54.514Z,100534.33
2019-04-29T04:45:29.345Z,100539.05
2019-04-29T04:47:04.507Z,100536.56
2019-04-29T04:48:39.569Z,100537.11
2019-04-29T04:50:15.003Z,100541.44
2019-04-29T04:51:50.065Z,100540.19
2019-04-29T04:53:24.883Z,100534.91
2019-04-29T04:54:59.703Z,100540.70
2019-04-29T04:56:34.485Z,100531.72
2019-04-29T04:58:09.598Z,100532.20
2019-04-29T04:59:45.256Z,100530.74
2019-04-29T05:01:20.053Z,100531.45
2019-04-29T05:02:55.397Z,100530.37
2019-04-29T05:04:30.178Z,100535.43
2019-04-29T05:06:05.036Z,100531.98
2019-04-29T05:07:40.170Z,100532.80
2019-04-29T05:09:14.948Z,100526.77
2019-04-29T05:10:49.881Z,100528.39
2019-04-29T05:12:24.655Z,100529.55
2019-04-29T05:13:59.432Z,100526.55
2019-04-29T05:15:40.429Z,100533.14
2019-04-29T05:17:18.726Z,100528.14
2019-04-29T05:18:53.544Z,100523.33
2019-04-29T05:20:28.609Z,100530.46
2019-04-29T05:22:03.398Z,100523.36
2019-04-29T05:23:41.352Z,100518.48
2019-04-29T05:25:15.216Z,100528.78
2019-04-29T05:26:51.427Z,100535.88
2019-04-29T05:28:26.595Z,100533.50
2019-04-29T05:30:01.413Z,100531.00
2019-04-29T05:31:36.960Z,100531.01
2019-04-29T05:33:12.041Z,100530.23
2019-04-29T05:34:48.620Z,100530.52
2019-04-29T05:36:51.697Z,100529.33
2019-04-29T05:38:39.057Z,100531.11
2019-04-29T05:40:33.253Z,100523.81
2019-04-29T05:42:15.810Z,100527.94
2019-04-29T05:43:53.847Z,100521.00
2019-04-29T05:45:41.545Z,100530.91
2019-04-29T05:47:25.915Z,100521.23
2019-04-29T05:49:02.431Z,100520.80
2019-04-29T05:50:52.055Z,100525.67
2019-04-29T05:52:39.538Z,100523.02
2019-04-29T05:54:12.780Z,100517.02
2019-04-29T05:55:47.692Z,100526.31
2019-04-29T05:57:25.389Z,100516.70
2019-04-29T05:58:58.993Z,100519.14
2019-04-29T06:00:34.095Z,100511.08
2019-04-29T06:02:08.864Z,100517.46
2019-04-29T06:03:44.420Z,100513.90
2019-04-29T06:05:19.406Z,100518.23
2019-04-29T06:06:54.175Z,100511.03
2019-04-29T06:08:29.200Z,100508.88
2019-04-29T06:10:04.304Z,100517.03
2019-04-29T06:11:39.084Z,100511.98
2019-04-29T06:13:13.858Z,100509.58
2019-04-29T06:14:48.718Z,100511.48
2019-04-29T06:16:23.616Z,100509.48
2019-04-29T06:17:58.415Z,100517.45
2019-04-29T06:19:35.226Z,100519.44
2019-04-29T06:21:09.841Z,100522.92
2019-04-29T06:22:44.612Z,100526.79
2019-04-29T06:24:19.394Z,100525.53
2019-04-29T06:25:54.510Z,100532.56
2019-04-29T06:27:29.728Z,100535.20
2019-04-29T06:29:06.050Z,100535.13
2019-04-29T06:30:45.221Z,100538.66
2019-04-29T06:32:20.181Z,100544.39
2019-04-29T06:33:53.977Z,100538.75
2019-04-29T06:35:28.770Z,100533.02
2019-04-29T06:37:03.617Z,100538.47
2019-04-29T06:38:38.405Z,100539.57
2019-04-29T06:40:13.724Z,100536.08
2019-04-29T06:41:48.803Z,100538.87
2019-04-29T06:43:24.625Z,100538.53
2019-04-29T06:45:00.909Z,100534.92
2019-04-29T06:46:35.708Z,100533.34
2019-04-29T06:48:10.514Z,100518.48
2019-04-29T06:49:45.361Z,100515.08
2019-04-29T06:51:20.410Z,100518.21
2019-04-29T06:52:55.180Z,100508.59
2019-04-29T06:54:30.367Z,100508.98
2019-04-29T06:56:05.145Z,100503.44
2019-04-29T06:57:39.912Z,100510.92
2019-04-29T06:59:14.298Z,100505.05
2019-04-29T07:00:50.864Z,100505.48
2019-04-29T07:02:25.101Z,100506.55
2019-04-29T07:04:01.204Z,100511.80
2019-04-29T07:05:36.202Z,100512.83
2019-04-29T07:07:10.946Z,100509.95
2019-04-29T07:08:45.404Z,100510.05
2019-04-29T07:10:21.629Z,100500.14
2019-04-29T07:12:01.295Z,100492.70
2019-04-29T07:13:32.286Z,100476.45
2019-04-29T07:15:11.792Z,100465.31
2019-04-29T07:16:43.601Z,100464.47
2019-04-29T07:18:17.964Z,100466.28
2019-04-29T07:19:52.361Z,100464.61
2019-04-29T07:21:26.735Z,100466.83
2019-04-29T07:23:02.460Z,100471.34
2019-04-29T07:24:37.049Z,100476.11
2019-04-29T07:26:11.530Z,100475.47
2019-04-29T07:27:45.880Z,100477.82
2019-04-29T07:29:20.641Z,100474.87
2019-04-29T07:31:03.192Z,100472.30
2019-04-29T07:32:32.513Z,100470.30
2019-04-29T07:34:08.536Z,100477.09
2019-04-29T07:35:47.955Z,100487.03
2019-04-29T07:37:19.487Z,100487.34
2019-04-29T07:38:56.713Z,100495.78
2019-04-29T07:40:30.327Z,100500.58
2019-04-29T07:42:04.962Z,100502.22
2019-04-29T07:43:43.050Z,100518.50
2019-04-29T07:45:44.081Z,100524.90
2019-04-29T07:47:10.338Z,100529.83
2019-04-29T07:48:45.022Z,100531.31
2019-04-29T07:50:22.336Z,100522.88
2019-04-29T07:51:55.745Z,100520.23
2019-04-29T07:53:38.754Z,100502.94
2019-04-29T07:55:06.625Z,100495.20
2019-04-29T07:56:43.513Z,100498.91
2019-04-29T07:58:23.038Z,100491.02
2019-04-29T07:59:55.235Z,100487.89
2019-04-29T08:01:29.837Z,100485.73
2019-04-29T08:03:07.327Z,100482.89
2019-04-29T08:04:41.805Z,100482.11
2019-04-29T08:06:16.400Z,100484.95
2019-04-29T08:07:51.761Z,100485.30
2019-04-29T08:09:26.735Z,100482.59
2019-04-29T08:11:01.104Z,100480.00
2019-04-29T08:12:36.753Z,100471.27
2019-04-29T08:14:12.830Z,100476.12
2019-04-29T08:15:47.509Z,100480.20
2019-04-29T08:17:21.886Z,100472.58
2019-04-29T08:18:56.318Z,100475.36
2019-04-29T08:20:30.986Z,100474.48
2019-04-29T08:22:05.373Z,100471.91
2019-04-29T08:23:42.240Z,100458.78
2019-04-29T08:25:15.949Z,100446.59
2019-04-29T08:26:50.324Z,100435.42
2019-04-29T08:28:25.002Z,100419.77
2019-04-29T08:29:59.613Z,100417.30
2019-04-29T08:31:34.470Z,100411.36
2019-04-29T08:33:11.952Z,100403.33
2019-04-29T08:34:45.034Z,100409.90
2019-04-29T08:36:19.409Z,100409.22
2019-04-29T08:37:54.214Z,100404.54
2019-04-29T08:39:30.866Z,100405.61
2019-04-29T08:41:06.238Z,100403.77
2019-04-29T08:42:46.926Z,100398.43
2019-04-29T08:44:38.959Z,100395.50
2019-04-29T08:46:17.464Z,100387.47
2019-04-29T08:47:52.569Z,100392.89
2019-04-29T08:49:27.659Z,100389.63
2019-04-29T08:51:02.432Z,100399.01
2019-04-29T08:52:37.363Z,100397.09
2019-04-29T08:54:16.130Z,100398.76
2019-04-29T08:55:48.675Z,100401.05
2019-04-29T08:57:23.707Z,100396.08
2019-04-29T08:58:58.776Z,100396.92
2019-04-29T09:00:33.893Z,100396.87
2019-04-29T09:02:10.221Z,100394.41
2019-04-29T09:03:45.388Z,100388.04
2019-04-29T09:05:20.506Z,100386.81
2019-04-29T09:06:55.811Z,100393.19
2019-04-29T09:08:32.857Z,100394.73
2019-04-29T09:10:07.811Z,100390.16
2019-04-29T09:11:43.574Z,100400.31
2019-04-29T09:13:19.412Z,100394.45
2019-04-29T09:14:54.680Z,100389.54
2019-04-29T09:16:29.954Z,100391.80
2019-04-29T09:18:04.869Z,100392.26
2019-04-29T09:19:39.719Z,100388.97
2019-04-29T09:21:14.767Z,100401.78
2019-04-29T09:23:00.057Z,100410.14
2019-04-29T09:24:35.821Z,100429.97
2019-04-29T09:26:26.101Z,100452.01
2019-04-29T09:28:04.010Z,100471.91
2019-04-29T09:29:38.873Z,100482.86
2019-04-29T09:31:13.724Z,100486.59
2019-04-29T09:32:48.544Z,100490.41
2019-04-29T09:34:24.700Z,100483.83
2019-04-29T09:36:00.227Z,100483.73
2019-04-29T09:37:35.033Z,100488.15
2019-04-29T09:39:10.475Z,100486.56
2019-04-29T09:40:54.636Z,100480.24
2019-04-29T09:42:51.910Z,100484.75
2019-04-29T09:44:45.039Z,100486.34
2019-04-29T09:46:30.100Z,100485.11
2019-04-29T09:48:02.935Z,100487.15
2019-04-29T09:49:37.755Z,100477.53
2019-04-29T09:51:17.491Z,100470.43
2019-04-29T09:52:48.494Z,100458.11
2019-04-29T09:54:23.000Z,100459.58
2019-04-29T09:55:57.422Z,100454.78
2019-04-29T09:57:31.798Z,100444.73
2019-04-29T09:59:23.303Z,100433.17
2019-04-29T10:01:13.913Z,100414.13
2019-04-29T10:02:58.420Z,100401.66
2019-04-29T10:04:55.214Z,100407.70
2019-04-29T10:06:21.044Z,100409.77
2019-04-29T10:07:55.775Z,100402.63
2019-04-29T10:09:30.215Z,100398.66
2019-04-29T10:11:05.526Z,100398.81
2019-04-29T10:12:40.225Z,100390.01
2019-04-29T10:14:15.221Z,100382.64
2019-04-29T10:16:06.424Z,100386.79
2019-04-29T10:17:55.657Z,100387.45
2019-04-29T10:19:56.383Z,100383.08
2019-04-29T10:21:30.900Z,100380.48
2019-04-29T10:23:05.865Z,100390.48
2019-04-29T10:24:40.230Z,100393.53
2019-04-29T10:26:14.609Z,100386.39
2019-04-29T10:27:49.242Z,100390.80
2019-04-29T10:29:25.793Z,100392.75
2019-04-29T10:31:00.403Z,100387.73
2019-04-29T10:32:37.789Z,100390.05
2019-04-29T10:34:11.757Z,100380.85
2019-04-29T10:35:46.577Z,100370.11
2019-04-29T10:37:23.725Z,100370.13
2019-04-29T10:39:02.821Z,100371.81
2019-04-29T10:40:47.629Z,100372.88
2019-04-29T10:42:40.353Z,100373.97
2019-04-29T10:44:37.378Z,100371.03
2019-04-29T10:46:43.267Z,100369.29
2019-04-29T10:48:27.703Z,100374.31
2019-04-29T10:50:10.588Z,100372.61
2019-04-29T10:51:42.966Z,100377.64
2019-04-29T10:53:17.716Z,100385.77
2019-04-29T10:54:55.495Z,100380.06
2019-04-29T10:56:28.269Z,100380.85
2019-04-29T10:58:02.835Z,100381.92
2019-04-29T10:59:40.635Z,100385.23
2019-04-29T11:02:25.876Z,100389.37
2019-04-29T11:04:02.586Z,100390.50
2019-04-29T11:05:44.689Z,100390.55
2019-04-29T11:07:26.550Z,100387.34
2019-04-29T11:09:09.719Z,100386.16
2019-04-29T11:10:45.528Z,100382.95
2019-04-29T11:12:19.912Z,100373.13
2019-04-29T11:13:57.603Z,100377.77
2019-04-29T11:15:37.605Z,100375.84
2019-04-29T11:17:16.544Z,100376.14
2019-04-29T11:18:48.274Z,100375.09
2019-04-29T11:20:23.483Z,100367.50
2019-04-29T11:22:08.513Z,100369.39
2019-04-29T11:24:01.124Z,100375.63
2019-04-29T11:25:53.541Z,100384.38
2019-04-29T11:27:31.630Z,100375.59
2019-04-29T11:29:09.332Z,100369.96
2019-04-29T11:30:42.820Z,100367.17
2019-04-29T11:32:29.158Z,100371.30
2019-04-29T11:34:38.824Z,100368.73
2019-04-29T11:36:14.666Z,100360.20
2019-04-29T11:37:50.018Z,100358.12
2019-04-29T11:39:26.848Z,100354.98
2019-04-29T11:41:21.018Z,100353.94
2019-04-29T11:42:55.576Z,100360.50
2019-04-29T11:44:31.852Z,100362.95
2019-04-29T11:46:10.035Z,100363.85
2019-04-29T11:47:42.295Z,100365.62
2019-04-29T11:49:18.336Z,100365.45
2019-04-29T11:51:01.681Z,100363.92
2019-04-29T11:52:36.041Z,100369.59
2019-04-29T11:54:12.378Z,100372.75
2019-04-29T11:55:46.969Z,100377.38
2019-04-29T11:57:41.055Z,100382.36
2019-04-29T11:59:29.316Z,100374.05
2019-04-29T12:01:11.494Z,100375.89
2019-04-29T12:02:55.072Z,100369.37
2019-04-29T12:04:35.399Z,100366.33
2019-04-29T12:06:10.957Z,100369.64
2019-04-29T12:07:45.310Z,100365.59
2019-04-29T12:09:19.801Z,100353.68
2019-04-29T12:11:06.810Z,100354.27
2019-04-29T12:12:30.672Z,100353.50
2019-04-29T12:14:17.352Z,100357.95
2019-04-29T12:16:24.473Z,100352.27
2019-04-29T12:18:08.460Z,100359.22
2019-04-29T12:19:43.228Z,100359.25
2019-04-29T12:21:27.642Z,100362.94
2019-04-29T12:23:02.358Z,100366.18
2019-04-29T12:24:37.030Z,100365.78
2019-04-29T12:26:11.862Z,100368.02
2019-04-29T12:27:46.752Z,100364.93
2019-04-29T12:29:23.203Z,100360.94
2019-04-29T12:31:00.164Z,100365.59
2019-04-29T12:32:47.590Z,100365.05
2019-04-29T12:34:44.616Z,100358.70
2019-04-29T12:36:19.151Z,100350.81
2019-04-29T12:38:22.227Z,100349.80
2019-04-29T12:40:19.154Z,100346.02
2019-04-29T12:42:12.670Z,100344.73
2019-04-29T12:44:12.341Z,100342.12
2019-04-29T12:46:00.637Z,100350.71
2019-04-29T12:47:36.319Z,100347.44
2019-04-29T12:49:13.577Z,100345.34
2019-04-29T12:50:47.200Z,100339.31
2019-04-29T12:52:21.931Z,100336.78
2019-04-29T12:53:56.309Z,100337.06
2019-04-29T12:55:45.057Z,100338.50
2019-04-29T12:57:18.899Z,100335.42
2019-04-29T12:58:55.231Z,100337.59
2019-04-29T13:00:46.862Z,100338.19
2019-04-29T13:02:45.405Z,100339.19
2019-04-29T13:04:49.808Z,100340.86
2019-04-29T13:06:39.685Z,100340.17
2019-04-29T13:08:26.183Z,100337.91
2019-04-29T13:10:06.995Z,100334.83
2019-04-29T13:11:48.743Z,100338.64
2019-04-29T13:13:20.053Z,100331.12
2019-04-29T13:15:07.905Z,100337.61
2019-04-29T13:16:55.788Z,100324.91
2019-04-29T13:18:37.676Z,100327.13
2019-04-29T13:20:13.137Z,100320.53
2019-04-29T13:21:47.750Z,100319.90
2019-04-29T13:23:33.594Z,100317.52
2019-04-29T13:24:58.702Z,100315.40
2019-04-29T13:26:36.919Z,100320.05
2019-04-29T13:28:09.494Z,100321.69
2019-04-29T13:29:43.843Z,100320.94
2019-04-29T13:31:20.164Z,100323.00
2019-04-29T13:32:54.295Z,100319.33
2019-04-29T13:34:33.663Z,100314.67
2019-04-29T13:36:08.633Z,100311.70
2019-04-29T13:37:43.041Z,100315.42
2019-04-29T13:39:17.470Z,100315.34
2019-04-29T13:41:11.406Z,100314.91
2019-04-29T13:42:28.249Z,100319.19
2019-04-29T13:44:05.347Z,100315.18
2019-04-29T13:45:45.111Z,100322.71
2019-04-29T13:47:29.324Z,100313.29
2019-04-29T13:49:13.523Z,100317.33
2019-04-29T13:52:45.052Z,100326.34
2019-04-29T13:54:19.531Z,100324.31
2019-04-29T13:56:10.351Z,100324.38
2019-04-29T13:57:30.340Z,100320.02
2019-04-29T13:59:10.720Z,100319.17
2019-04-29T14:01:01.919Z,100318.11
2019-04-29T14:02:39.966Z,100320.27
2019-04-29T14:04:26.064Z,100321.34
2019-04-29T14:06:04.316Z,100314.23
2019-04-29T14:07:39.406Z,100317.41
2019-04-29T14:09:13.265Z,100310.98
2019-04-29T14:10:51.192Z,100301.20
2019-04-29T14:12:47.673Z,100299.96
2019-04-29T14:14:00.573Z,100302.09
2019-04-29T14:15:38.289Z,100304.08
2019-04-29T14:17:25.309Z,100304.20
2019-04-29T14:18:48.154Z,100305.58
2019-04-29T14:20:23.444Z,100308.49
2019-04-29T14:21:57.966Z,100306.39
2019-04-29T14:23:32.473Z,100310.19
2019-04-29T14:25:07.463Z,100307.87
2019-04-29T14:26:44.984Z,100307.55
2019-04-29T14:28:18.477Z,100306.42
2019-04-29T14:29:52.846Z,100309.43
2019-04-29T14:31:30.148Z,100313.34
2019-04-29T14:33:03.413Z,100306.09
2019-04-29T14:34:44.557Z,100306.03
2019-04-29T14:36:19.912Z,100307.63
2019-04-29T14:38:00.054Z,100309.38
2019-04-29T14:39:37.275Z,100308.31
2019-04-29T14:41:08.019Z,100312.08
2019-04-29T14:43:25.426Z,100307.33
2019-04-29T14:44:50.991Z,100307.20
2019-04-29T14:46:47.375Z,100307.03
2019-04-29T14:48:42.070Z,100305.55
2019-04-29T14:50:15.740Z,100310.25
2019-04-29T14:51:47.446Z,100303.67
2019-04-29T14:53:24.123Z,100309.22
2019-04-29T14:54:58.041Z,100302.72
2019-04-29T14:56:32.453Z,100302.70
2019-04-29T14:58:06.802Z,100302.00
2019-04-29T14:59:41.360Z,100297.82
2019-04-29T15:01:27.714Z,100299.90
2019-04-29T15:03:02.894Z,100305.75
2019-04-29T15:04:39.626Z,100295.95
2019-04-29T15:06:14.105Z,100301.52
2019-04-29T15:07:48.605Z,100305.37
2019-04-29T15:09:23.306Z,100305.98
2019-04-29T15:10:58.028Z,100306.06
2019-04-29T15:13:19.690Z,100304.31
2019-04-29T15:14:47.666Z,100312.33
2019-04-29T15:16:35.001Z,100317.42
2019-04-29T15:18:38.898Z,100313.78
2019-04-29T15:20:08.580Z,100316.16
2019-04-29T15:21:49.153Z,100318.64
2019-04-29T15:23:28.884Z,100322.55
2019-04-29T15:24:59.876Z,100321.30
2019-04-29T15:26:34.550Z,100329.69
2019-04-29T15:28:08.915Z,100325.94
2019-04-29T15:29:43.264Z,100325.50
2019-04-29T15:31:17.702Z,100323.75
2019-04-29T15:32:53.051Z,100325.02
2019-04-29T15:34:28.143Z,100327.12
2019-04-29T15:36:02.529Z,100319.17
2019-04-29T15:37:36.897Z,100327.48
2019-04-29T15:39:12.387Z,100324.97
2019-04-29T15:40:47.464Z,100321.59
2019-04-29T15:42:22.008Z,100331.19
2019-04-29T15:44:07.061Z,100331.55
2019-04-29T15:45:34.227Z,100331.03
2019-04-29T15:47:08.706Z,100326.64
2019-04-29T15:48:43.158Z,100334.14
2019-04-29T15:50:19.129Z,100330.40
2019-04-29T15:51:54.022Z,100333.03
2019-04-29T15:53:28.684Z,100335.63
2019-04-29T15:55:03.391Z,100332.55
2019-04-29T15:56:38.597Z,100339.13
2019-04-29T15:58:14.319Z,100340.91
2019-04-29T15:59:54.118Z,100339.08
2019-04-29T16:01:29.745Z,100339.44
2019-04-29T16:03:01.677Z,100338.89
2019-04-29T16:04:39.897Z,100338.84
2019-04-29T16:06:40.187Z,100330.94
2019-04-29T16:08:29.230Z,100332.61
2019-04-29T16:10:22.977Z,100328.61
2019-04-29T16:12:13.912Z,100333.50
2019-04-29T16:13:41.890Z,100331.53
2019-04-29T16:15:16.639Z,100332.20
2019-04-29T16:16:51.486Z,100330.80
2019-04-29T16:18:26.039Z,100329.31
2019-04-29T16:20:00.733Z,100333.81
2019-04-29T16:21:39.083Z,100332.71
2019-04-29T16:23:11.429Z,100327.80
2019-04-29T16:24:45.824Z,100329.17
2019-04-29T16:26:25.114Z,100335.09
2019-04-29T16:27:56.653Z,100336.27
2019-04-29T16:29:31.317Z,100332.12
2019-04-29T16:31:12.217Z,100331.61
2019-04-29T16:32:41.858Z,100328.23
2019-04-29T16:34:16.558Z,100332.89
2019-04-29T16:35:50.940Z,100324.73
2019-04-29T16:37:31.996Z,100326.14
2019-04-29T16:39:01.502Z,100329.13
2019-04-29T16:40:41.279Z,100328.50
2019-04-29T16:42:33.967Z,100335.46
2019-04-29T16:45:52.935Z,100331.69
2019-04-29T16:47:27.835Z,100326.48
2019-04-29T16:49:03.041Z,100332.72
2019-04-29T16:50:37.888Z,100326.59
2019-04-29T16:52:12.592Z,100324.45
2019-04-29T16:53:47.347Z,100323.14
2019-04-29T16:55:21.726Z,100328.50
2019-04-29T16:56:56.470Z,100328.72
2019-04-29T16:58:30.906Z,100325.37
2019-04-29T17:00:13.820Z,100324.57
2019-04-29T17:01:43.254Z,100327.59
2019-04-29T17:03:17.613Z,100324.00
2019-04-29T17:04:52.081Z,100326.00
2019-04-29T17:06:26.739Z,100324.92
2019-04-29T17:08:01.162Z,100330.99
2019-04-29T17:09:53.690Z,100326.75
2019-04-29T17:11:30.217Z,100324.76
2019-04-29T17:13:09.138Z,100331.82
2019-04-29T17:15:02.175Z,100327.02
2019-04-29T17:16:18.888Z,100324.16
2019-04-29T17:18:37.181Z,100331.36
2019-04-29T17:20:12.888Z,100331.86
2019-04-29T17:21:47.275Z,100331.74
2019-04-29T17:23:24.522Z,100322.36
2019-04-29T17:24:58.046Z,100331.95
2019-04-29T17:26:42.746Z,100324.92
2019-04-29T17:28:32.644Z,100319.96
2019-04-29T17:30:19.324Z,100323.33
2019-04-29T17:32:25.850Z,100327.35
2019-04-29T17:34:29.346Z,100319.39
2019-04-29T17:35:15.894Z,100330.20
2019-04-29T17:35:52.021Z,100322.06
2019-04-29T17:37:26.751Z,100327.94
2019-04-29T17:39:01.128Z,100323.49
2019-04-29T17:40:36.674Z,100330.29
2019-04-29T17:42:11.028Z,100330.88
2019-04-29T17:44:03.206Z,100337.75
2019-04-29T17:45:44.512Z,100341.42
2019-04-29T17:47:34.448Z,100342.58
2019-04-29T17:49:31.181Z,100346.63
2019-04-29T17:51:07.785Z,100349.81
2019-04-29T17:52:42.256Z,100347.34
2019-04-29T17:54:22.061Z,100347.33
2019-04-29T17:56:02.511Z,100350.25
2019-04-29T17:57:47.269Z,100343.75
2019-04-29T17:59:35.790Z,100344.42
2019-04-29T18:01:42.869Z,100348.93
2019-04-29T18:03:41.241Z,100354.16
2019-04-29T18:05:33.115Z,100358.64
2019-04-29T18:07:28.583Z,100357.08
2019-04-29T18:09:28.161Z,100357.59
2019-04-29T18:11:06.551Z,100360.62
2019-04-29T18:12:41.226Z,100352.00
2019-04-29T18:14:15.336Z,100357.91
2019-04-29T18:16:00.908Z,100354.42
2019-04-29T18:17:31.256Z,100354.30
2019-04-29T18:19:15.729Z,100351.41
2019-04-29T18:21:07.204Z,100356.34
2019-04-29T18:22:59.044Z,100359.47
2019-04-29T18:24:44.936Z,100356.75
2019-04-29T18:26:25.810Z,100355.03
2019-04-29T18:28:00.439Z,100360.45
2019-04-29T18:29:41.380Z,100365.05
2019-04-29T18:31:12.764Z,100358.42
2019-04-29T18:32:47.803Z,100356.98
2019-04-29T18:34:22.372Z,100359.02
2019-04-29T18:36:04.113Z,100356.59
2019-04-29T18:37:36.856Z,100357.45
2019-04-29T18:39:11.048Z,100358.25
2019-04-29T18:40:46.815Z,100357.37
2019-04-29T18:42:21.513Z,100362.69
2019-04-29T18:44:02.605Z,100355.03
2019-04-29T18:45:35.032Z,100359.90